createdAt,value
2018-03-25T18:10:23.054Z,59.09
2018-03-25T18:12:52.524Z,59.64
2018-03-25T18:15:20.855Z,59.96
2018-03-25T18:17:49.103Z,59.83
2018-03-25T18:20:17.352Z,60.97
2018-03-25T18:22:46.376Z,61.90
2018-03-25T18:25:15.393Z,62.79
2018-03-25T18:27:43.638Z,63.28
2018-03-25T18:30:12.652Z,63.06
2018-03-25T18:32:40.919Z,62.60
2018-03-25T18:35:09.924Z,62.32
2018-03-25T18:37:38.936Z,62.83
2018-03-25T18:40:07.175Z,62.42
2018-03-25T18:42:35.437Z,63.36
2018-03-25T18:45:03.675Z,64.17
2018-03-25T18:47:32.877Z,62.57
2018-03-25T18:50:01.113Z,62.16
2018-03-25T18:52:29.367Z,63.36
2018-03-25T18:54:57.614Z,63.01
2018-03-25T18:57:25.849Z,63.69
2018-03-25T18:59:54.101Z,64.14
2018-03-25T19:02:22.340Z,63.86
2018-03-25T19:04:50.588Z,62.13
2018-03-25T19:07:18.841Z,61.01
2018-03-25T19:09:47.101Z,61.20
2018-03-25T19:12:15.344Z,61.59
2018-03-25T19:14:44.364Z,61.88
2018-03-25T19:17:12.616Z,62.72
2018-03-25T19:19:40.868Z,62.52
2018-03-25T19:22:09.120Z,63.91
2018-03-25T19:24:37.360Z,65.59
2018-03-25T19:27:06.380Z,66.07
2018-03-25T19:29:34.629Z,66.35
2018-03-25T19:32:02.912Z,67.27
2018-03-25T19:34:31.116Z,66.04
2018-03-25T19:36:59.372Z,65.89
2018-03-25T19:39:27.616Z,66.38
2018-03-25T19:41:55.879Z,65.89
2018-03-25T19:44:24.131Z,64.80
2018-03-25T19:46:53.142Z,66.63
2018-03-25T19:49:21.400Z,68.10
2018-03-25T19:51:50.422Z,68.38
2018-03-25T19:54:18.670Z,69.27
2018-03-25T19:56:46.917Z,69.11
2018-03-25T19:59:15.161Z,69.35
2018-03-25T20:01:43.404Z,69.25
2018-03-25T20:04:11.673Z,70.65
2018-03-25T20:06:39.912Z,71.62
2018-03-25T20:09:08.158Z,71.24
2018-03-25T20:11:37.175Z,72.25
2018-03-25T20:14:05.430Z,73.20
2018-03-25T20:16:33.675Z,73.77
2018-03-25T20:19:01.935Z,72.62
2018-03-25T20:21:30.184Z,73.27
2018-03-25T20:23:59.214Z,72.45
2018-03-25T20:26:27.468Z,70.56
2018-03-25T20:28:56.588Z,72.10
2018-03-25T20:31:24.843Z,72.31
2018-03-25T20:33:53.973Z,72.86
2018-03-25T20:36:22.240Z,73.54
2018-03-25T20:38:50.482Z,74.19
2018-03-25T20:41:18.723Z,74.46
2018-03-25T20:43:46.980Z,74.17
2018-03-25T20:46:15.220Z,73.45
2018-03-25T20:48:43.481Z,73.90
2018-03-25T20:51:11.725Z,74.99
2018-03-25T20:53:39.962Z,75.86
2018-03-25T20:56:08.216Z,75.54
2018-03-25T20:58:36.491Z,75.31
2018-03-25T21:01:04.725Z,76.59
2018-03-25T21:03:33.741Z,76.62
2018-03-25T21:06:01.992Z,77.55
2018-03-25T21:08:31.024Z,77.39
2018-03-25T21:10:59.486Z,76.77
2018-03-25T21:13:28.492Z,76.21
2018-03-25T21:15:56.751Z,76.60
2018-03-25T21:18:25.761Z,76.04
2018-03-25T21:20:54.780Z,76.28
2018-03-25T21:23:23.037Z,76.77
2018-03-25T21:25:52.069Z,77.08
2018-03-25T21:28:20.568Z,77.38
2018-03-25T21:30:48.824Z,77.80
2018-03-25T21:33:17.064Z,77.30
2018-03-25T21:35:46.081Z,78.27
2018-03-25T21:38:14.336Z,79.09
2018-03-25T21:40:42.600Z,79.52
2018-03-25T21:43:10.848Z,80.29
2018-03-25T21:45:39.103Z,80.49
2018-03-25T21:48:07.464Z,80.68
2018-03-25T21:50:36.476Z,80.80
2018-03-25T21:53:05.491Z,80.97
2018-03-25T21:55:33.750Z,80.67
2018-03-25T21:58:02.774Z,80.65
2018-03-25T22:00:31.022Z,80.83
2018-03-25T22:03:05.864Z,80.22
2018-03-25T22:05:34.871Z,81.05
2018-03-25T22:08:03.140Z,80.72
2018-03-25T22:10:31.396Z,80.04
2018-03-25T22:12:59.648Z,80.78
2018-03-25T22:15:27.921Z,80.65
2018-03-25T22:17:56.165Z,80.26
2018-03-25T22:20:25.184Z,79.94
2018-03-25T22:22:53.433Z,80.23
2018-03-25T22:25:22.455Z,80.11
2018-03-25T22:27:50.714Z,77.31
2018-03-25T22:30:19.729Z,78.94
2018-03-25T22:32:48.000Z,79.50
2018-03-25T22:35:16.270Z,79.10
2018-03-25T22:37:45.281Z,79.40
2018-03-25T22:40:13.543Z,79.59
2018-03-25T22:42:42.552Z,79.06
2018-03-25T22:45:11.569Z,78.74
2018-03-25T22:47:39.834Z,79.33
2018-03-25T22:50:08.846Z,79.82
2018-03-25T22:52:37.101Z,80.27
2018-03-25T22:55:06.118Z,78.86
2018-03-25T22:57:34.373Z,78.24
2018-03-25T23:00:03.397Z,78.80
2018-03-25T23:02:31.668Z,79.39
2018-03-25T23:05:00.990Z,79.56
2018-03-25T23:07:29.229Z,80.00
2018-03-25T23:09:57.488Z,80.48
2018-03-25T23:12:25.983Z,81.09
2018-03-25T23:14:54.220Z,80.94
2018-03-25T23:17:22.461Z,79.35
2018-03-25T23:19:51.484Z,77.81
2018-03-25T23:22:19.751Z,76.93
2018-03-25T23:24:48.773Z,78.45
2018-03-25T23:27:17.017Z,77.94
2018-03-25T23:29:46.041Z,75.58
2018-03-25T23:32:14.308Z,75.42
2018-03-25T23:34:43.319Z,75.22
2018-03-25T23:37:11.582Z,77.25
2018-03-25T23:39:40.591Z,78.15
2018-03-25T23:42:08.861Z,77.98
2018-03-25T23:44:37.885Z,75.73
2018-03-25T23:47:06.115Z,75.24
2018-03-25T23:49:34.391Z,75.34
2018-03-25T23:52:02.644Z,76.06
2018-03-25T23:54:30.882Z,77.09
2018-03-25T23:56:59.908Z,77.15
2018-03-25T23:59:28.164Z,78.16
